Time;durP1;ratioP1;P1;durP2;ratioP2;P2;SDS_P1;SDS_P2;PMS_P1;PMS_P2;Temp;Humidity;BMP_temperature;BMP_pressure;BME280_temperature;BME280_humidity;BME280_pressure;Samples;Min_cycle;Max_cycle;Signal;HPM_P1;HPM_P2
2024/03/31 00:00:43;;;;;;;0.00;0.00;;;;;;;11.46;100.00;100759.36;105925;1254;72645;-79
2024/03/31 00:03:11;;;;;;;0.10;0.10;;;;;;;11.44;100.00;100755.27;106304;1254;59914;-76
2024/03/31 00:05:38;;;;;;;1.00;0.90;;;;;;;11.43;100.00;100759.58;105944;1257;61264;-76
2024/03/31 00:08:06;;;;;;;0.00;0.00;;;;;;;11.37;100.00;100758.02;105987;1252;74771;-80
2024/03/31 00:10:34;;;;;;;0.00;0.00;;;;;;;11.36;100.00;100760.05;105900;1256;67722;-79
2024/03/31 00:13:02;;;;;;;0.60;0.60;;;;;;;11.33;100.00;100757.48;105786;1254;72641;-79
2024/03/31 00:15:29;;;;;;;0.10;0.10;;;;;;;11.32;100.00;100753.33;107153;1252;61362;-77
2024/03/31 00:17:57;;;;;;;0.30;0.30;;;;;;;11.29;100.00;100757.61;106558;1256;61163;-76
2024/03/31 00:20:24;;;;;;;0.20;0.20;;;;;;;11.23;100.00;100756.18;105929;1254;74659;-76
2024/03/31 00:22:53;;;;;;;0.00;0.00;;;;;;;11.22;100.00;100756.41;105945;1258;66290;-79
2024/03/31 00:25:20;;;;;;;0.00;0.00;;;;;;;11.20;100.00;100755.88;105959;1254;71688;-76
2024/03/31 00:27:48;;;;;;;0.00;0.00;;;;;;;11.19;100.00;100757.08;106164;1256;61225;-76
2024/03/31 00:30:16;;;;;;;0.00;0.00;;;;;;;11.19;100.00;100753.80;105779;1253;59752;-79
2024/03/31 00:32:43;;;;;;;1.00;0.90;;;;;;;11.08;100.00;100751.09;105973;1256;74937;-79
2024/03/31 00:35:11;;;;;;;0.00;0.00;;;;;;;11.05;100.00;100750.42;105885;1256;67122;-76
2024/03/31 00:37:38;;;;;;;0.10;0.10;;;;;;;11.02;100.00;100751.03;105826;1254;72737;-79
2024/03/31 00:40:07;;;;;;;0.00;0.00;;;;;;;11.01;100.00;100745.71;107658;1254;61270;-79
2024/03/31 00:42:35;;;;;;;1.50;1.20;;;;;;;11.00;100.00;100744.79;105967;1256;61319;-76
2024/03/31 00:45:02;;;;;;;0.00;0.00;;;;;;;10.99;100.00;100739.77;106060;1253;73417;-80
2024/03/31 00:47:30;;;;;;;3.70;3.40;;;;;;;10.98;100.00;100743.21;105908;1253;68993;-79
2024/03/31 00:49:58;;;;;;;0.20;0.20;;;;;;;10.96;100.00;100739.39;105930;1254;71141;-76
2024/03/31 00:52:25;;;;;;;0.20;0.20;;;;;;;10.96;100.00;100743.10;105845;1254;61630;-76
2024/03/31 00:54:53;;;;;;;0.00;0.00;;;;;;;10.96;100.00;100738.73;105878;1254;186420;-76
2024/03/31 00:57:20;;;;;;;0.40;0.40;;;;;;;10.95;100.00;100745.51;105845;1254;73368;-77
2024/03/31 00:59:48;;;;;;;0.20;0.20;;;;;;;10.98;100.00;100743.36;105896;1254;68678;-80
2024/03/31 01:02:16;;;;;;;0.00;0.00;;;;;;;10.93;100.00;100748.08;106419;1253;72704;-76
2024/03/31 01:04:44;;;;;;;0.00;0.00;;;;;;;10.87;100.00;100751.36;105974;1253;61577;-79
2024/03/31 01:07:12;;;;;;;0.00;0.00;;;;;;;10.85;100.00;100751.73;105909;1254;61308;-76
2024/03/31 01:09:39;;;;;;;0.00;0.00;;;;;;;10.83;100.00;100755.85;105988;1255;74617;-79
2024/03/31 01:12:07;;;;;;;0.00;0.00;;;;;;;10.80;100.00;100756.45;105712;1259;67216;-76
2024/03/31 01:14:35;;;;;;;0.30;0.30;;;;;;;10.81;100.00;100756.29;105903;1259;72683;-79
2024/03/31 01:17:03;;;;;;;0.30;0.30;;;;;;;10.78;100.00;100752.73;107457;1254;61316;-79
2024/03/31 01:19:30;;;;;;;0.00;0.00;;;;;;;10.78;100.00;100752.02;106438;1254;61246;-76
2024/03/31 01:21:58;;;;;;;0.00;0.00;;;;;;;10.80;100.00;100758.52;106385;1259;73252;-79
2024/03/31 01:24:26;;;;;;;0.00;0.00;;;;;;;10.84;100.00;100757.05;106042;1253;69790;-77
2024/03/31 01:26:54;;;;;;;0.00;0.00;;;;;;;10.75;100.00;100758.03;105949;1254;72768;-76
2024/03/31 01:29:22;;;;;;;0.20;0.20;;;;;;;10.70;100.00;100762.34;106173;1256;61286;-76
2024/03/31 01:31:49;;;;;;;0.00;0.00;;;;;;;10.70;100.00;100764.36;105922;1257;61353;-76
2024/03/31 01:34:17;;;;;;;0.00;0.00;;;;;;;10.70;100.00;100767.75;105943;1254;74577;-79
2024/03/31 01:36:45;;;;;;;0.00;0.00;;;;;;;10.69;100.00;100764.92;106034;1259;67126;-79
2024/03/31 01:39:14;;;;;;;0.10;0.10;;;;;;;10.69;100.00;100770.33;106092;1253;71308;-79
2024/03/31 01:41:44;;;;;;;0.00;0.00;;;;;;;10.62;100.00;100770.85;106566;1254;61308;-76
2024/03/31 01:44:12;;;;;;;0.00;0.00;;;;;;;10.58;100.00;100771.95;106084;1254;61330;-76
2024/03/31 01:46:40;;;;;;;0.00;0.00;;;;;;;10.60;100.00;100768.63;106042;1256;74622;-76
2024/03/31 01:49:07;;;;;;;0.00;0.00;;;;;;;10.48;100.00;100766.52;106045;1256;67739;-76
2024/03/31 01:51:35;;;;;;;0.00;0.00;;;;;;;10.43;100.00;100768.60;105932;1254;72720;-76
2024/03/31 01:54:03;;;;;;;0.30;0.30;;;;;;;10.37;100.00;100768.64;105960;1254;61167;-79
2024/03/31 01:56:30;;;;;;;0.00;0.00;;;;;;;10.32;100.00;100768.79;105817;1253;61349;-76
2024/03/31 01:58:59;;;;;;;0.00;0.00;;;;;;;10.33;100.00;100765.84;106109;1254;73369;-79
2024/03/31 02:01:27;;;;;;;0.00;0.00;;;;;;;10.33;100.00;100765.67;106869;1253;68384;-76
2024/03/31 02:03:55;;;;;;;0.00;0.00;;;;;;;10.28;100.00;100764.57;106065;1254;72706;-76
2024/03/31 02:06:23;;;;;;;0.30;0.30;;;;;;;10.24;100.00;100765.42;105930;1257;61370;-79
2024/03/31 02:08:50;;;;;;;0.20;0.20;;;;;;;10.21;100.00;100769.02;105915;1259;61326;-76
2024/03/31 02:11:18;;;;;;;0.00;0.00;;;;;;;10.15;100.00;100764.95;105949;1258;74704;-76
2024/03/31 02:13:45;;;;;;;0.10;0.10;;;;;;;10.13;100.00;100762.82;106202;1258;67243;-78
2024/03/31 02:16:13;;;;;;;0.00;0.00;;;;;;;10.16;100.00;100765.61;105864;1255;72718;-76
2024/03/31 02:18:41;;;;;;;0.00;0.00;;;;;;;10.15;100.00;100766.27;105872;1254;61290;-76
2024/03/31 02:21:08;;;;;;;0.00;0.00;;;;;;;10.11;100.00;100772.20;105900;1253;61253;-76
2024/03/31 02:23:36;;;;;;;1.60;1.50;;;;;;;10.11;100.00;100779.42;105905;1254;73994;-76
2024/03/31 02:26:04;;;;;;;0.30;0.30;;;;;;;10.11;100.00;100785.20;106614;1254;68428;-77
2024/03/31 02:28:32;;;;;;;0.00;0.00;;;;;;;10.10;100.00;100781.33;106321;1259;72645;-79
2024/03/31 02:30:59;;;;;;;0.00;0.00;;;;;;;10.05;100.00;100785.23;106100;1254;61247;-76
2024/03/31 02:33:27;;;;;;;0.00;0.00;;;;;;;10.03;100.00;100778.83;105907;1254;61208;-79
2024/03/31 02:35:55;;;;;;;0.00;0.00;;;;;;;9.98;100.00;100778.44;105727;1259;74603;-76
2024/03/31 02:38:23;;;;;;;0.10;0.10;;;;;;;9.99;100.00;100780.45;105879;1258;66453;-76
2024/03/31 02:40:50;;;;;;;0.30;0.30;;;;;;;9.97;100.00;100776.35;105708;1257;70543;-76
2024/03/31 02:43:18;;;;;;;0.00;0.00;;;;;;;9.88;100.00;100780.59;105880;1254;61266;-79
2024/03/31 02:45:48;;;;;;;0.00;0.00;;;;;;;9.85;100.00;100783.09;106783;1254;61387;-76
2024/03/31 02:48:15;;;;;;;0.00;0.00;;;;;;;9.82;100.00;100782.85;105886;1259;74978;-79
2024/03/31 02:50:47;;;;;;;0.00;0.00;;;;;;;9.80;100.00;100778.15;105929;1254;68558;-79
2024/03/31 02:53:15;;;;;;;1.40;1.20;;;;;;;9.76;100.00;100779.82;106042;1257;71432;-79
2024/03/31 02:55:42;;;;;;;1.80;1.70;;;;;;;9.74;100.00;100778.83;105933;1257;61258;-79
2024/03/31 02:58:10;;;;;;;0.00;0.00;;;;;;;9.73;100.00;100780.20;105969;1254;61113;-76
2024/03/31 03:00:38;;;;;;;0.10;0.10;;;;;;;9.69;100.00;100785.20;105897;1260;75132;-76
2024/03/31 03:03:05;;;;;;;0.00;0.00;;;;;;;9.69;100.00;100782.30;106029;1254;68927;-79
2024/03/31 03:05:33;;;;;;;0.00;0.00;;;;;;;9.68;100.00;100784.04;105936;1254;71723;-76
2024/03/31 03:08:01;;;;;;;0.50;0.50;;;;;;;9.67;100.00;100785.30;106817;1254;61343;-79
2024/03/31 03:10:28;;;;;;;0.00;0.00;;;;;;;9.61;100.00;100785.37;105877;1254;61319;-76
2024/03/31 03:12:58;;;;;;;0.00;0.00;;;;;;;9.56;100.00;100789.48;105823;1259;74636;-76
2024/03/31 03:15:27;;;;;;;0.10;0.10;;;;;;;9.52;100.00;100787.11;105852;1254;67711;-79
2024/03/31 03:17:55;;;;;;;0.00;0.00;;;;;;;9.50;100.00;100787.88;106192;1254;72698;-76
2024/03/31 03:20:23;;;;;;;6.60;2.70;;;;;;;9.45;100.00;100789.09;105900;1259;61256;-76
2024/03/31 03:22:58;;;;;;;0.30;0.30;;;;;;;9.41;100.00;100789.89;105955;1255;60016;-79
2024/03/31 03:25:26;;;;;;;0.00;0.00;;;;;;;9.40;100.00;100789.55;105933;1254;75110;-76
2024/03/31 03:27:54;;;;;;;0.00;0.00;;;;;;;9.39;100.00;100791.46;105861;1252;68383;-79
2024/03/31 03:30:22;;;;;;;0.00;0.00;;;;;;;9.36;100.00;100788.71;106338;1257;72668;-79
2024/03/31 03:32:51;;;;;;;0.10;0.10;;;;;;;9.33;100.00;100794.09;105985;1253;61247;-80
2024/03/31 03:35:19;;;;;;;0.00;0.00;;;;;;;9.28;100.00;100796.41;106020;1254;61153;-79
2024/03/31 03:37:47;;;;;;;0.00;0.00;;;;;;;9.27;100.00;100801.25;105868;1260;74629;-79
2024/03/31 03:40:15;;;;;;;0.00;0.00;;;;;;;9.28;100.00;100804.64;105893;1258;66143;-79
2024/03/31 03:42:42;;;;;;;0.00;0.00;;;;;;;9.29;100.00;100806.60;105999;1259;71273;-76
2024/03/31 03:45:10;;;;;;;0.00;0.00;;;;;;;9.29;100.00;100806.88;105856;1258;61368;-79
2024/03/31 03:47:38;;;;;;;0.00;0.00;;;;;;;9.28;100.00;100806.39;105836;1259;61244;-76
2024/03/31 03:50:05;;;;;;;0.00;0.00;;;;;;;9.29;100.00;100806.23;106754;1259;74583;-76
2024/03/31 03:52:37;;;;;;;0.10;0.10;;;;;;;9.31;100.00;100804.17;105841;1253;68392;-79
2024/03/31 03:55:04;;;;;;;0.00;0.00;;;;;;;9.36;100.00;100807.25;105884;1259;71154;-79
2024/03/31 03:57:33;;;;;;;0.00;0.00;;;;;;;9.45;100.00;100809.66;105822;1262;61308;-79
2024/03/31 04:00:00;;;;;;;0.00;0.00;;;;;;;9.49;100.00;100813.72;105950;1253;61365;-79
2024/03/31 04:02:28;;;;;;;3.30;1.10;;;;;;;9.40;100.00;100818.14;105713;1255;74301;-79
2024/03/31 04:04:56;;;;;;;0.00;0.00;;;;;;;9.41;100.00;100822.63;106277;1254;67796;-76
2024/03/31 04:07:24;;;;;;;0.10;0.10;;;;;;;9.46;100.00;100828.38;105824;1257;72411;-78
2024/03/31 04:09:52;;;;;;;0.00;0.00;;;;;;;9.50;100.00;100825.84;106094;1254;61381;-78
2024/03/31 04:12:19;;;;;;;0.40;0.40;;;;;;;9.54;100.00;100829.04;105897;1253;61272;-75
2024/03/31 04:14:47;;;;;;;0.30;0.30;;;;;;;9.57;100.00;100829.01;105782;1253;73708;-75
2024/03/31 04:17:14;;;;;;;0.00;0.00;;;;;;;9.61;100.00;100829.35;105773;1259;67395;-78
2024/03/31 04:19:42;;;;;;;0.30;0.30;;;;;;;9.67;100.00;100831.13;105877;1259;71394;-78
2024/03/31 04:22:10;;;;;;;0.20;0.20;;;;;;;9.71;100.00;100834.10;105833;1254;61317;-76
2024/03/31 04:24:38;;;;;;;0.00;0.00;;;;;;;9.76;100.00;100830.81;105543;1260;61222;-79
2024/03/31 04:27:05;;;;;;;0.60;0.60;;;;;;;9.79;100.00;100827.86;106808;1253;74879;-79
2024/03/31 04:29:33;;;;;;;0.00;0.00;;;;;;;9.85;100.00;100827.64;105879;1254;68457;-78
2024/03/31 04:32:01;;;;;;;0.00;0.00;;;;;;;9.96;100.00;100827.35;105853;1259;72741;-79
2024/03/31 04:34:30;;;;;;;0.00;0.00;;;;;;;10.06;100.00;100831.98;105796;1262;61213;-79
2024/03/31 04:36:58;;;;;;;0.50;0.50;;;;;;;10.15;100.00;100832.41;105831;1259;61271;-79
2024/03/31 04:39:26;;;;;;;0.00;0.00;;;;;;;10.26;100.00;100825.46;105760;1255;73462;-76
2024/03/31 04:41:54;;;;;;;0.80;0.80;;;;;;;10.37;100.00;100825.63;106292;1254;68580;-76
2024/03/31 04:44:21;;;;;;;0.00;0.00;;;;;;;10.48;100.00;100829.05;106221;1257;71395;-75
2024/03/31 04:46:50;;;;;;;0.00;0.00;;;;;;;10.60;100.00;100825.95;107576;1254;61297;-76
2024/03/31 04:49:19;;;;;;;0.00;0.00;;;;;;;10.75;100.00;100828.00;106094;1259;61238;-76
2024/03/31 04:51:48;;;;;;;0.00;0.00;;;;;;;10.86;100.00;100823.98;105928;1255;73119;-79
2024/03/31 04:54:18;;;;;;;0.00;0.00;;;;;;;10.99;100.00;100819.00;106052;1254;68375;-76
2024/03/31 04:56:47;;;;;;;0.10;0.10;;;;;;;11.13;100.00;100821.52;106074;1259;72639;-75
2024/03/31 04:59:18;;;;;;;0.00;0.00;;;;;;;11.29;100.00;100817.02;105820;1256;61379;-76
2024/03/31 05:01:46;;;;;;;0.00;0.00;;;;;;;11.42;100.00;100820.02;105680;1254;61332;-79
2024/03/31 05:04:14;;;;;;;0.20;0.20;;;;;;;11.57;100.00;100814.95;105824;1254;73416;-75
2024/03/31 05:06:42;;;;;;;0.00;0.00;;;;;;;11.71;100.00;100813.98;106133;1254;68554;-79
2024/03/31 05:09:09;;;;;;;0.00;0.00;;;;;;;11.83;100.00;100813.59;106129;1256;71420;-76
2024/03/31 05:11:37;;;;;;;0.20;0.20;;;;;;;11.98;100.00;100810.38;106104;1255;61364;-79
2024/03/31 05:14:05;;;;;;;0.00;0.00;;;;;;;12.11;100.00;100808.29;105846;1254;60037;-76
2024/03/31 05:16:35;;;;;;;0.00;0.00;;;;;;;12.25;100.00;100807.73;105820;1255;73724;-79
2024/03/31 05:19:02;;;;;;;0.80;0.80;;;;;;;12.38;100.00;100807.27;105889;1257;67287;-79
2024/03/31 05:21:30;;;;;;;0.10;0.10;;;;;;;12.50;100.00;100805.56;106014;1254;71359;-79
2024/03/31 05:24:01;;;;;;;0.00;0.00;;;;;;;12.65;100.00;100806.40;105790;1254;61295;-76
2024/03/31 05:26:31;;;;;;;0.00;0.00;;;;;;;12.82;100.00;100809.23;106633;1254;61439;-79
2024/03/31 05:28:59;;;;;;;0.00;0.00;;;;;;;12.97;100.00;100807.98;105884;1259;73410;-78
2024/03/31 05:31:28;;;;;;;1.00;1.00;;;;;;;13.10;100.00;100814.78;105898;1254;68440;-75
2024/03/31 05:34:04;;;;;;;0.00;0.00;;;;;;;13.25;100.00;100814.17;105822;1259;72633;-75
2024/03/31 05:36:35;;;;;;;0.00;0.00;;;;;;;13.40;100.00;100812.02;105576;1257;61285;-79
2024/03/31 05:39:02;;;;;;;0.00;0.00;;;;;;;13.61;100.00;100814.83;105665;1259;61164;-76
2024/03/31 05:41:30;;;;;;;0.40;0.30;;;;;;;13.80;100.00;100814.90;106329;1253;74605;-79
2024/03/31 05:43:57;;;;;;;0.00;0.00;;;;;;;13.98;100.00;100813.15;106020;1258;67932;-76
2024/03/31 05:46:27;;;;;;;0.60;0.60;;;;;;;14.17;100.00;100813.78;106061;1254;71756;-79
2024/03/31 05:48:56;;;;;;;0.20;0.20;;;;;;;14.29;100.00;100819.35;106080;1254;61479;-76
2024/03/31 05:51:28;;;;;;;0.00;0.00;;;;;;;14.36;100.00;100820.57;105873;1259;61161;-79
2024/03/31 05:53:55;;;;;;;0.00;0.00;;;;;;;14.49;100.00;100825.23;106149;1259;74655;-76
2024/03/31 05:56:23;;;;;;;0.40;0.40;;;;;;;14.64;100.00;100823.02;105936;1257;68390;-76
2024/03/31 05:58:51;;;;;;;0.40;0.40;;;;;;;14.76;100.00;100826.27;106753;1255;73093;-76
2024/03/31 06:01:20;;;;;;;0.00;0.00;;;;;;;14.88;100.00;100828.98;105873;1254;61240;-79
2024/03/31 06:03:50;;;;;;;0.00;0.00;;;;;;;15.02;100.00;100832.16;106027;1256;61166;-79
2024/03/31 06:06:18;;;;;;;0.00;0.00;;;;;;;15.16;100.00;100835.30;105957;1254;74674;-79
2024/03/31 06:08:45;;;;;;;0.00;0.00;;;;;;;15.28;100.00;100833.39;105981;1259;67925;-79
2024/03/31 06:11:14;;;;;;;0.90;0.90;;;;;;;15.40;100.00;100831.20;105825;1255;71450;-76
2024/03/31 06:13:44;;;;;;;0.00;0.00;;;;;;;15.51;100.00;100827.27;106042;1253;61399;-79
2024/03/31 06:16:13;;;;;;;1.70;0.40;;;;;;;15.66;100.00;100828.80;106867;1254;61296;-79
2024/03/31 06:18:42;;;;;;;0.00;0.00;;;;;;;15.83;100.00;100827.74;106111;1255;74681;-77
2024/03/31 06:21:10;;;;;;;0.00;0.00;;;;;;;16.01;100.00;100825.84;105969;1254;66119;-77
2024/03/31 06:23:38;;;;;;;0.50;0.50;;;;;;;16.13;100.00;100822.61;105948;1255;72742;-79
2024/03/31 06:26:06;;;;;;;0.00;0.00;;;;;;;16.25;100.00;100824.12;105671;1258;61300;-76
2024/03/31 06:28:33;;;;;;;0.10;0.10;;;;;;;16.37;100.00;100822.37;105778;1254;61231;-76
2024/03/31 06:31:07;;;;;;;0.00;0.00;;;;;;;16.52;100.00;100824.81;106387;1254;74938;-79
2024/03/31 06:33:35;;;;;;;0.00;0.00;;;;;;;16.70;100.00;100822.19;107920;1256;67162;-79
2024/03/31 06:36:04;;;;;;;0.10;0.10;;;;;;;16.89;100.00;100829.61;105896;1259;71386;-79
2024/03/31 06:38:32;;;;;;;0.00;0.00;;;;;;;17.07;100.00;100827.17;105761;1254;61355;-79
2024/03/31 06:40:59;;;;;;;0.00;0.00;;;;;;;17.20;100.00;100825.19;105686;1261;61240;-80
2024/03/31 06:43:28;;;;;;;78.80;30.50;;;;;;;17.39;100.00;100825.02;105870;1254;72455;-79
2024/03/31 06:45:56;;;;;;;1.00;0.40;;;;;;;17.55;99.22;100826.73;105781;1258;68345;-80
2024/03/31 06:48:24;;;;;;;75.90;9.30;;;;;;;17.74;95.11;100821.48;106638;1257;71468;-79
2024/03/31 06:50:52;;;;;;;0.00;0.00;;;;;;;17.82;92.92;100820.05;105989;1259;61880;-79
2024/03/31 06:53:19;;;;;;;0.20;0.20;;;;;;;18.04;90.72;100823.97;105959;1256;61292;-77
2024/03/31 06:55:47;;;;;;;0.80;0.80;;;;;;;18.27;89.32;100821.59;105967;1254;73472;-77
2024/03/31 06:58:14;;;;;;;0.10;0.10;;;;;;;18.49;85.75;100825.09;105889;1259;68053;-77
2024/03/31 07:00:42;;;;;;;0.00;0.00;;;;;;;18.65;81.98;100827.70;105886;1257;71263;-77
2024/03/31 07:03:10;;;;;;;0.00;0.00;;;;;;;18.79;81.26;100830.05;105811;1254;61256;-76
2024/03/31 07:05:37;;;;;;;0.00;0.00;;;;;;;18.94;77.89;100834.53;105880;1253;61169;-77
2024/03/31 07:08:05;;;;;;;0.00;0.00;;;;;;;19.14;76.95;100832.66;106559;1254;73189;-77
2024/03/31 07:10:33;;;;;;;2.40;1.90;;;;;;;19.34;76.99;100833.54;105972;1257;68421;-77
2024/03/31 07:13:01;;;;;;;0.00;0.00;;;;;;;19.55;75.83;100835.54;105921;1260;72722;-77
2024/03/31 07:15:29;;;;;;;0.00;0.00;;;;;;;19.76;71.58;100835.08;105766;1254;61294;-77
2024/03/31 07:18:09;;;;;;;5.90;0.90;;;;;;;19.96;70.92;100835.22;106012;1255;61883;-77
2024/03/31 07:20:37;;;;;;;0.00;0.00;;;;;;;20.16;66.40;100832.38;105920;1259;73351;-77
2024/03/31 07:23:05;;;;;;;0.00;0.00;;;;;;;20.32;63.98;100834.54;106017;1259;67140;-77
2024/03/31 07:25:35;;;;;;;0.00;0.00;;;;;;;20.48;61.82;100838.58;105878;1260;71415;-77
2024/03/31 07:28:03;;;;;;;0.00;0.00;;;;;;;20.72;60.28;100841.58;106005;1256;61244;-80
2024/03/31 07:30:31;;;;;;;0.00;0.00;;;;;;;20.87;58.26;100840.23;105917;1255;61307;-77
2024/03/31 07:32:59;;;;;;;0.70;0.70;;;;;;;21.10;57.31;100839.65;106353;1254;74670;-79
2024/03/31 07:35:27;;;;;;;0.10;0.10;;;;;;;21.23;56.03;100838.21;106085;1259;67151;-80
2024/03/31 07:37:54;;;;;;;0.00;0.00;;;;;;;21.37;52.54;100836.87;105967;1258;72849;-77
2024/03/31 07:40:22;;;;;;;0.00;0.00;;;;;;;21.42;52.48;100835.56;105919;1260;61359;-76
2024/03/31 07:42:49;;;;;;;0.00;0.00;;;;;;;21.51;51.95;100836.55;105818;1260;61359;-76
2024/03/31 07:45:17;;;;;;;4.30;1.60;;;;;;;21.63;48.74;100832.41;105953;1256;72977;-77
2024/03/31 07:47:45;;;;;;;2.10;1.90;;;;;;;21.64;46.56;100831.16;107218;1253;68374;-77
2024/03/31 07:50:12;;;;;;;0.00;0.00;;;;;;;21.67;45.72;100831.52;105969;1258;71401;-77
2024/03/31 07:52:42;;;;;;;0.00;0.00;;;;;;;21.75;45.52;100827.16;106034;1259;61379;-77
2024/03/31 07:55:10;;;;;;;23.00;5.20;;;;;;;21.81;45.43;100828.34;105865;1259;62165;-77
2024/03/31 07:57:38;;;;;;;0.00;0.00;;;;;;;21.90;44.99;100830.20;105891;1260;74637;-77
2024/03/31 08:00:06;;;;;;;0.00;0.00;;;;;;;22.01;44.46;100832.52;105801;1260;69008;-80
2024/03/31 08:02:40;;;;;;;0.20;0.20;;;;;;;22.15;43.82;100833.64;105755;1259;74869;-80
2024/03/31 08:05:07;;;;;;;22.00;3.60;;;;;;;22.26;43.80;100836.48;105642;1253;61654;-80
2024/03/31 08:07:35;;;;;;;0.00;0.00;;;;;;;22.46;43.44;100836.23;106511;1260;58832;-79
2024/03/31 08:10:03;;;;;;;0.00;0.00;;;;;;;22.62;43.35;100832.98;105882;1259;74622;-80
2024/03/31 08:12:30;;;;;;;0.00;0.00;;;;;;;22.73;43.46;100828.69;105898;1254;69677;-80
2024/03/31 08:14:58;;;;;;;0.40;0.40;;;;;;;22.88;45.14;100821.25;105909;1257;72651;-79
2024/03/31 08:17:26;;;;;;;0.00;0.00;;;;;;;23.09;45.68;100822.76;105873;1259;61827;-79
2024/03/31 08:19:53;;;;;;;0.00;0.00;;;;;;;23.26;44.44;100824.00;105943;1258;61858;-79
2024/03/31 08:22:21;;;;;;;0.00;0.00;;;;;;;23.45;45.22;100825.80;105994;1255;75613;-79
2024/03/31 08:24:49;;;;;;;0.00;0.00;;;;;;;23.63;45.96;100821.17;107562;1259;69308;-80
2024/03/31 08:27:17;;;;;;;0.00;0.00;;;;;;;23.77;45.39;100822.66;105905;1254;72666;-79
2024/03/31 08:29:44;;;;;;;0.10;0.10;;;;;;;23.86;44.17;100823.67;105927;1253;62183;-79
2024/03/31 08:32:12;;;;;;;0.00;0.00;;;;;;;24.01;43.00;100818.38;105930;1254;61429;-79
2024/03/31 08:34:39;;;;;;;0.10;0.10;;;;;;;24.14;41.57;100818.13;105782;1259;75151;-80
2024/03/31 08:37:07;;;;;;;0.00;0.00;;;;;;;24.19;41.19;100818.98;105983;1260;68682;-75
2024/03/31 08:39:35;;;;;;;0.30;0.30;;;;;;;24.19;41.74;100814.10;107057;1259;62477;-77
2024/03/31 08:42:14;;;;;;;0.00;0.00;;;;;;;24.23;41.41;100814.22;105947;1260;61256;-78
2024/03/31 08:44:42;;;;;;;0.00;0.00;;;;;;;24.36;39.87;100807.48;105972;1260;61954;-79
2024/03/31 08:47:11;;;;;;;0.50;0.50;;;;;;;24.42;39.61;100802.59;106036;1254;64428;-76
2024/03/31 08:49:39;;;;;;;0.20;0.20;;;;;;;24.43;38.54;100799.34;105771;1259;69223;-77
2024/03/31 08:52:07;;;;;;;0.00;0.00;;;;;;;24.46;38.83;100795.91;106002;1257;62478;-79
2024/03/31 08:54:35;;;;;;;0.00;0.00;;;;;;;24.49;38.20;100787.21;105745;1260;61361;-76
2024/03/31 08:57:03;;;;;;;0.00;0.00;;;;;;;24.53;37.40;100796.86;106146;1255;61413;-76
2024/03/31 08:59:31;;;;;;;0.60;0.60;;;;;;;24.50;36.98;100793.92;106453;1253;74653;-77
2024/03/31 09:01:58;;;;;;;0.20;0.20;;;;;;;24.46;36.69;100792.34;105701;1260;68449;-77
2024/03/31 09:04:26;;;;;;;0.00;0.00;;;;;;;24.48;36.51;100795.16;106040;1264;72781;-77
2024/03/31 09:06:54;;;;;;;0.00;0.00;;;;;;;24.59;36.66;100789.72;105802;1254;61236;-79
2024/03/31 09:09:22;;;;;;;0.00;0.00;;;;;;;24.67;36.09;100786.72;106192;1260;61745;-77
2024/03/31 09:11:50;;;;;;;0.00;0.00;;;;;;;24.75;35.76;100789.91;105903;1258;69517;-76
2024/03/31 09:14:19;;;;;;;0.20;0.20;;;;;;;24.88;35.48;100786.66;105982;1256;61305;-77
2024/03/31 09:16:48;;;;;;;0.00;0.00;;;;;;;24.97;35.42;100786.11;105889;1259;74720;-80
2024/03/31 09:19:15;;;;;;;0.00;0.00;;;;;;;25.06;35.61;100788.05;106223;1259;61286;-78
2024/03/31 09:21:46;;;;;;;0.00;0.00;;;;;;;25.16;36.58;100784.48;105845;1260;61151;-79
2024/03/31 09:24:14;;;;;;;0.00;0.00;;;;;;;25.19;36.62;100785.22;105892;1254;76846;-79
2024/03/31 09:26:41;;;;;;;0.00;0.00;;;;;;;25.22;36.51;100786.08;105826;1267;70919;-78
2024/03/31 09:29:09;;;;;;;0.20;0.20;;;;;;;25.23;36.82;100783.77;106001;1257;66287;-76
2024/03/31 09:31:37;;;;;;;0.00;0.00;;;;;;;25.23;35.88;100784.73;105967;1259;61467;-76
2024/03/31 09:34:04;;;;;;;0.00;0.00;;;;;;;25.21;36.20;100784.23;105951;1260;61266;-79
2024/03/31 09:36:38;;;;;;;0.10;0.00;;;;;;;25.17;35.91;100785.24;106032;1254;65892;-78
2024/03/31 09:39:06;;;;;;;0.00;0.00;;;;;;;25.12;35.80;100787.67;105866;1254;61192;-78
2024/03/31 09:41:34;;;;;;;0.00;0.00;;;;;;;25.07;35.80;100786.95;105747;1260;63777;-77
2024/03/31 09:44:02;;;;;;;0.00;0.00;;;;;;;25.06;35.81;100785.74;105803;1254;61365;-78
2024/03/31 09:46:30;;;;;;;0.00;0.00;;;;;;;25.10;34.06;100782.70;105821;1260;61250;-77
2024/03/31 09:49:02;;;;;;;0.00;0.00;;;;;;;25.09;33.95;100784.59;105598;1261;66288;-79
2024/03/31 09:51:33;;;;;;;0.10;0.10;;;;;;;25.06;33.68;100781.09;105895;1260;62357;-76
2024/03/31 09:54:07;;;;;;;0.00;0.00;;;;;;;25.04;33.93;100779.70;105659;1254;66229;-79
2024/03/31 09:56:44;;;;;;;0.00;0.00;;;;;;;25.11;33.51;100774.00;105781;1260;61367;-78
2024/03/31 09:59:12;;;;;;;0.00;0.00;;;;;;;25.22;32.95;100772.23;106065;1261;61349;-78
2024/03/31 10:01:40;;;;;;;0.00;0.00;;;;;;;25.39;33.60;100764.88;105740;1261;67905;-76
2024/03/31 10:04:11;;;;;;;0.80;0.60;;;;;;;25.47;33.19;100766.69;105540;1260;62299;-78
2024/03/31 10:06:39;;;;;;;0.00;0.00;;;;;;;25.51;33.25;100768.12;105918;1258;72901;-75
2024/03/31 10:09:07;;;;;;;0.10;0.10;;;;;;;25.59;32.73;100763.05;105804;1259;61504;-76
2024/03/31 10:11:34;;;;;;;0.10;0.10;;;;;;;25.55;32.72;100766.75;105526;1260;61355;-79
2024/03/31 10:14:02;;;;;;;0.00;0.00;;;;;;;25.52;32.05;100767.34;106087;1259;67492;-79
2024/03/31 10:16:30;;;;;;;0.00;0.00;;;;;;;25.55;32.11;100761.62;105999;1260;70032;-76
2024/03/31 10:18:57;;;;;;;0.00;0.00;;;;;;;25.56;32.48;100760.46;105915;1257;64703;-76
2024/03/31 10:21:25;;;;;;;0.00;0.00;;;;;;;25.59;32.16;100758.98;105844;1255;61343;-78
2024/03/31 10:23:53;;;;;;;0.00;0.00;;;;;;;25.67;32.53;100755.04;106070;1255;61368;-76
2024/03/31 10:26:22;;;;;;;0.00;0.00;;;;;;;25.72;32.07;100750.72;105627;1254;67786;-76
2024/03/31 10:28:50;;;;;;;0.00;0.00;;;;;;;25.82;32.97;100752.16;105776;1260;61744;-78
2024/03/31 10:31:19;;;;;;;0.20;0.20;;;;;;;25.97;33.10;100754.16;105876;1257;64660;-78
2024/03/31 10:33:47;;;;;;;0.00;0.00;;;;;;;26.08;33.13;100757.63;106029;1261;61295;-76
2024/03/31 10:36:15;;;;;;;0.00;0.00;;;;;;;26.16;32.86;100752.70;105621;1254;61117;-76
2024/03/31 10:38:43;;;;;;;0.00;0.00;;;;;;;26.25;32.36;100751.13;105533;1255;67859;-77
2024/03/31 10:41:11;;;;;;;0.00;0.00;;;;;;;26.32;33.02;100747.55;106040;1259;61200;-76
2024/03/31 10:43:39;;;;;;;45.20;13.50;;;;;;;26.39;32.56;100747.64;105915;1257;66311;-81
2024/03/31 10:46:07;;;;;;;0.00;0.00;;;;;;;26.40;31.94;100746.52;105916;1254;61318;-80
2024/03/31 10:48:35;;;;;;;1.30;1.20;;;;;;;26.49;31.42;100740.98;106027;1259;61405;-79
2024/03/31 10:51:12;;;;;;;4.10;0.50;;;;;;;26.64;31.43;100740.61;106010;1254;68348;-77
2024/03/31 10:53:39;;;;;;;0.00;0.00;;;;;;;26.68;30.88;100737.45;105905;1254;61751;-76
2024/03/31 10:56:08;;;;;;;21.60;20.20;;;;;;;26.74;31.14;100731.44;105844;1260;66170;-76
2024/03/31 10:58:39;;;;;;;0.00;0.00;;;;;;;26.88;30.68;100725.67;106157;1257;61349;-77
2024/03/31 11:01:06;;;;;;;0.00;0.00;;;;;;;26.95;31.12;100724.38;105969;1254;61341;-76
2024/03/31 11:03:34;;;;;;;0.00;0.00;;;;;;;26.92;30.53;100719.70;106052;1256;68036;-79
2024/03/31 11:06:02;;;;;;;0.00;0.00;;;;;;;27.00;30.40;100716.09;105878;1255;61813;-76
2024/03/31 11:08:30;;;;;;;0.90;0.80;;;;;;;27.14;29.98;100710.71;105766;1254;67508;-76
2024/03/31 11:11:01;;;;;;;0.00;0.00;;;;;;;27.24;31.07;100706.10;105699;1255;61301;-76
2024/03/31 11:13:28;;;;;;;0.00;0.00;;;;;;;27.32;30.55;100698.72;106069;1254;61176;-79
2024/03/31 11:15:56;;;;;;;0.00;0.00;;;;;;;27.38;30.76;100699.48;105869;1257;66821;-76
2024/03/31 11:18:24;;;;;;;0.00;0.00;;;;;;;27.49;30.33;100700.70;105863;1257;61935;-79